CCY3 weather

Sussex Airport
Sussex, New Brunswick, Canada

Public forecast

Using degrees Celsius for public forecast. Weather courtesy of forecast.io.

METAR (pilot weather report)

Closest report is Saint John Airport, 26.9 nm (49.7 km) SSW. Retrieved 2019/08/25 11:00 UTC (3 minutes ago):

CYSJ 251100Z 03006KT 15SM FEW001 10/10 A3039 RMK SF1 SLP295

TAF (pilot weather forecast)

Closest forecast is Saint John Airport, 26.9 nm (49.7 km) SSW. Retrieved 2019/08/25 06:42 UTC (4 hours ago):

TAF CYSJ 250538Z 2506/2518 VRB03KT 6SM BR FEW040 TEMPO 2506/2512 4SM BR PROB30 2506/2512 1SM BR FM251200 36007KT P6SM SKC BECMG 2514/2516 03007KT FM251700 09007KT P6SM FEW050 RMK NXT FCST BY 251200Z